sensor_id;sensor_type;location;lat;lon;timestamp;P1;durP1;ratioP1;P2;durP2;ratioP2
44048;SDS011;29717;47.028;15.470;2023-05-13T00:00:00;2.38;;;1.90;;
44048;SDS011;29717;47.028;15.470;2023-05-13T00:02:28;2.10;;;1.92;;
44048;SDS011;29717;47.028;15.470;2023-05-13T00:04:55;1.80;;;1.70;;
44048;SDS011;29717;47.028;15.470;2023-05-13T00:07:22;1.70;;;1.60;;
44048;SDS011;29717;47.028;15.470;2023-05-13T00:09:50;1.70;;;1.60;;
44048;SDS011;29717;47.028;15.470;2023-05-13T00:12:17;1.85;;;1.75;;
44048;SDS011;29717;47.028;15.470;2023-05-13T00:14:43;1.80;;;1.70;;
44048;SDS011;29717;47.028;15.470;2023-05-13T00:17:10;1.65;;;1.55;;
44048;SDS011;29717;47.028;15.470;2023-05-13T00:19:39;3.17;;;1.70;;
44048;SDS011;29717;47.028;15.470;2023-05-13T00:22:05;1.58;;;1.48;;
44048;SDS011;29717;47.028;15.470;2023-05-13T00:24:32;1.60;;;1.50;;
44048;SDS011;29717;47.028;15.470;2023-05-13T00:26:59;1.80;;;1.70;;
44048;SDS011;29717;47.028;15.470;2023-05-13T00:29:26;1.67;;;1.58;;
44048;SDS011;29717;47.028;15.470;2023-05-13T00:31:53;1.67;;;1.58;;
44048;SDS011;29717;47.028;15.470;2023-05-13T00:34:20;2.85;;;1.70;;
44048;SDS011;29717;47.028;15.470;2023-05-13T00:36:48;1.50;;;1.40;;
44048;SDS011;29717;47.028;15.470;2023-05-13T00:39:15;1.60;;;1.50;;
44048;SDS011;29717;47.028;15.470;2023-05-13T00:41:42;1.52;;;1.42;;
44048;SDS011;29717;47.028;15.470;2023-05-13T00:44:09;1.63;;;1.52;;
44048;SDS011;29717;47.028;15.470;2023-05-13T00:46:36;1.48;;;1.38;;
44048;SDS011;29717;47.028;15.470;2023-05-13T00:49:03;1.80;;;1.52;;
44048;SDS011;29717;47.028;15.470;2023-05-13T00:51:30;2.63;;;1.80;;
44048;SDS011;29717;47.028;15.470;2023-05-13T00:53:59;1.40;;;1.30;;
44048;SDS011;29717;47.028;15.470;2023-05-13T00:56:26;1.23;;;1.13;;
44048;SDS011;29717;47.028;15.470;2023-05-13T00:58:53;1.38;;;1.27;;
44048;SDS011;29717;47.028;15.470;2023-05-13T01:01:23;1.55;;;1.23;;
44048;SDS011;29717;47.028;15.470;2023-05-13T01:03:52;1.40;;;1.30;;
44048;SDS011;29717;47.028;15.470;2023-05-13T01:06:24;1.40;;;1.30;;
44048;SDS011;29717;47.028;15.470;2023-05-13T01:08:55;2.85;;;1.77;;
44048;SDS011;29717;47.028;15.470;2023-05-13T01:11:26;2.28;;;1.60;;
44048;SDS011;29717;47.028;15.470;2023-05-13T01:13:56;3.15;;;1.60;;
44048;SDS011;29717;47.028;15.470;2023-05-13T01:16:28;3.38;;;1.50;;
44048;SDS011;29717;47.028;15.470;2023-05-13T01:18:56;1.58;;;1.48;;
44048;SDS011;29717;47.028;15.470;2023-05-13T01:21:25;1.48;;;1.38;;
44048;SDS011;29717;47.028;15.470;2023-05-13T01:23:53;1.40;;;1.30;;
44048;SDS011;29717;47.028;15.470;2023-05-13T01:26:20;1.73;;;1.33;;
44048;SDS011;29717;47.028;15.470;2023-05-13T01:28:48;1.70;;;1.60;;
44048;SDS011;29717;47.028;15.470;2023-05-13T01:31:15;1.33;;;1.23;;
44048;SDS011;29717;47.028;15.470;2023-05-13T01:33:42;1.70;;;1.20;;
44048;SDS011;29717;47.028;15.470;2023-05-13T01:36:10;1.60;;;1.50;;
44048;SDS011;29717;47.028;15.470;2023-05-13T01:38:38;1.70;;;1.58;;
44048;SDS011;29717;47.028;15.470;2023-05-13T01:41:06;1.30;;;1.20;;
44048;SDS011;29717;47.028;15.470;2023-05-13T01:43:32;1.50;;;1.40;;
44048;SDS011;29717;47.028;15.470;2023-05-13T01:46:00;1.40;;;1.30;;
44048;SDS011;29717;47.028;15.470;2023-05-13T01:48:26;1.30;;;1.20;;
44048;SDS011;29717;47.028;15.470;2023-05-13T01:50:53;1.40;;;1.30;;
44048;SDS011;29717;47.028;15.470;2023-05-13T01:53:20;1.30;;;1.20;;
44048;SDS011;29717;47.028;15.470;2023-05-13T01:55:49;1.30;;;1.20;;
44048;SDS011;29717;47.028;15.470;2023-05-13T01:58:17;1.35;;;1.25;;
44048;SDS011;29717;47.028;15.470;2023-05-13T02:00:44;3.15;;;1.48;;
44048;SDS011;29717;47.028;15.470;2023-05-13T02:03:11;1.30;;;1.20;;
44048;SDS011;29717;47.028;15.470;2023-05-13T02:05:38;1.20;;;1.10;;
44048;SDS011;29717;47.028;15.470;2023-05-13T02:08:07;1.80;;;1.40;;
44048;SDS011;29717;47.028;15.470;2023-05-13T02:10:34;1.67;;;1.33;;
44048;SDS011;29717;47.028;15.470;2023-05-13T02:13:02;1.75;;;1.40;;
44048;SDS011;29717;47.028;15.470;2023-05-13T02:15:29;1.50;;;1.40;;
44048;SDS011;29717;47.028;15.470;2023-05-13T02:17:56;1.23;;;1.13;;
44048;SDS011;29717;47.028;15.470;2023-05-13T02:20:23;1.10;;;1.10;;
44048;SDS011;29717;47.028;15.470;2023-05-13T02:22:50;1.27;;;1.17;;
44048;SDS011;29717;47.028;15.470;2023-05-13T02:25:17;1.30;;;1.20;;
44048;SDS011;29717;47.028;15.470;2023-05-13T02:27:44;1.40;;;1.30;;
44048;SDS011;29717;47.028;15.470;2023-05-13T02:30:14;1.65;;;1.30;;
44048;SDS011;29717;47.028;15.470;2023-05-13T02:32:42;2.08;;;1.23;;
44048;SDS011;29717;47.028;15.470;2023-05-13T02:35:08;1.25;;;1.15;;
44048;SDS011;29717;47.028;15.470;2023-05-13T02:37:36;1.10;;;1.10;;
44048;SDS011;29717;47.028;15.470;2023-05-13T02:40:03;1.23;;;1.13;;
44048;SDS011;29717;47.028;15.470;2023-05-13T02:42:30;2.45;;;1.13;;
44048;SDS011;29717;47.028;15.470;2023-05-13T02:44:57;1.10;;;1.08;;
44048;SDS011;29717;47.028;15.470;2023-05-13T02:47:26;2.80;;;1.23;;
44048;SDS011;29717;47.028;15.470;2023-05-13T02:49:53;1.48;;;1.30;;
44048;SDS011;29717;47.028;15.470;2023-05-13T02:52:20;1.10;;;1.10;;
44048;SDS011;29717;47.028;15.470;2023-05-13T02:54:47;1.23;;;1.13;;
44048;SDS011;29717;47.028;15.470;2023-05-13T02:57:14;1.00;;;1.00;;
44048;SDS011;29717;47.028;15.470;2023-05-13T02:59:40;1.00;;;1.00;;
44048;SDS011;29717;47.028;15.470;2023-05-13T03:02:07;1.05;;;1.05;;
44048;SDS011;29717;47.028;15.470;2023-05-13T03:04:36;1.40;;;1.30;;
44048;SDS011;29717;47.028;15.470;2023-05-13T03:07:02;1.58;;;1.38;;
44048;SDS011;29717;47.028;15.470;2023-05-13T03:09:29;1.10;;;1.10;;
44048;SDS011;29717;47.028;15.470;2023-05-13T03:11:56;1.20;;;1.10;;
44048;SDS011;29717;47.028;15.470;2023-05-13T03:14:23;1.38;;;1.27;;
44048;SDS011;29717;47.028;15.470;2023-05-13T03:16:50;1.42;;;1.30;;
44048;SDS011;29717;47.028;15.470;2023-05-13T03:19:17;1.48;;;1.38;;
44048;SDS011;29717;47.028;15.470;2023-05-13T03:21:45;1.63;;;1.10;;
44048;SDS011;29717;47.028;15.470;2023-05-13T03:24:12;1.52;;;1.42;;
44048;SDS011;29717;47.028;15.470;2023-05-13T03:26:39;1.80;;;1.40;;
44048;SDS011;29717;47.028;15.470;2023-05-13T03:29:06;1.13;;;1.05;;
44048;SDS011;29717;47.028;15.470;2023-05-13T03:31:33;1.30;;;1.20;;
44048;SDS011;29717;47.028;15.470;2023-05-13T03:33:59;2.58;;;1.30;;
44048;SDS011;29717;47.028;15.470;2023-05-13T03:36:26;1.40;;;1.30;;
44048;SDS011;29717;47.028;15.470;2023-05-13T03:38:54;1.73;;;1.45;;
44048;SDS011;29717;47.028;15.470;2023-05-13T03:41:21;1.30;;;1.20;;
44048;SDS011;29717;47.028;15.470;2023-05-13T03:43:48;1.50;;;1.40;;
44048;SDS011;29717;47.028;15.470;2023-05-13T03:46:15;1.48;;;1.38;;
44048;SDS011;29717;47.028;15.470;2023-05-13T03:48:42;1.30;;;1.20;;
44048;SDS011;29717;47.028;15.470;2023-05-13T03:51:09;1.30;;;1.20;;
44048;SDS011;29717;47.028;15.470;2023-05-13T03:53:36;1.10;;;1.00;;
44048;SDS011;29717;47.028;15.470;2023-05-13T03:56:05;1.48;;;1.35;;
44048;SDS011;29717;47.028;15.470;2023-05-13T03:58:32;1.40;;;1.30;;
44048;SDS011;29717;47.028;15.470;2023-05-13T04:00:58;2.70;;;1.45;;
44048;SDS011;29717;47.028;15.470;2023-05-13T04:03:25;1.58;;;1.48;;
44048;SDS011;29717;47.028;15.470;2023-05-13T04:05:52;1.67;;;1.58;;
44048;SDS011;29717;47.028;15.470;2023-05-13T04:08:19;1.50;;;1.40;;
44048;SDS011;29717;47.028;15.470;2023-05-13T04:10:47;2.30;;;1.60;;
44048;SDS011;29717;47.028;15.470;2023-05-13T04:13:15;1.63;;;1.52;;
44048;SDS011;29717;47.028;15.470;2023-05-13T04:15:42;1.55;;;1.45;;
44048;SDS011;29717;47.028;15.470;2023-05-13T04:18:08;1.65;;;1.55;;
44048;SDS011;29717;47.028;15.470;2023-05-13T04:20:36;1.70;;;1.52;;
44048;SDS011;29717;47.028;15.470;2023-05-13T04:23:03;2.50;;;2.30;;
44048;SDS011;29717;47.028;15.470;2023-05-13T04:25:30;2.22;;;1.90;;
44048;SDS011;29717;47.028;15.470;2023-05-13T04:27:57;2.42;;;2.30;;
44048;SDS011;29717;47.028;15.470;2023-05-13T04:30:25;2.55;;;2.35;;
44048;SDS011;29717;47.028;15.470;2023-05-13T04:32:52;2.25;;;2.05;;
44048;SDS011;29717;47.028;15.470;2023-05-13T04:35:19;2.80;;;2.60;;
44048;SDS011;29717;47.028;15.470;2023-05-13T04:37:45;3.13;;;2.83;;
44048;SDS011;29717;47.028;15.470;2023-05-13T04:40:14;3.40;;;3.10;;
44048;SDS011;29717;47.028;15.470;2023-05-13T04:42:40;4.18;;;3.15;;
44048;SDS011;29717;47.028;15.470;2023-05-13T04:45:08;3.28;;;3.08;;
44048;SDS011;29717;47.028;15.470;2023-05-13T04:47:37;4.00;;;3.60;;
44048;SDS011;29717;47.028;15.470;2023-05-13T04:50:04;4.57;;;4.15;;
44048;SDS011;29717;47.028;15.470;2023-05-13T04:52:31;5.78;;;5.28;;
44048;SDS011;29717;47.028;15.470;2023-05-13T04:54:57;6.30;;;5.22;;
44048;SDS011;29717;47.028;15.470;2023-05-13T04:57:24;7.22;;;5.90;;
44048;SDS011;29717;47.028;15.470;2023-05-13T04:59:51;6.22;;;5.63;;
44048;SDS011;29717;47.028;15.470;2023-05-13T05:02:18;6.40;;;5.72;;
44048;SDS011;29717;47.028;15.470;2023-05-13T05:04:46;8.00;;;6.47;;
44048;SDS011;29717;47.028;15.470;2023-05-13T05:07:13;7.68;;;6.80;;
44048;SDS011;29717;47.028;15.470;2023-05-13T05:09:40;7.00;;;6.35;;
44048;SDS011;29717;47.028;15.470;2023-05-13T05:12:07;7.55;;;6.75;;
44048;SDS011;29717;47.028;15.470;2023-05-13T05:14:33;8.15;;;7.18;;
44048;SDS011;29717;47.028;15.470;2023-05-13T05:17:00;7.85;;;7.15;;
44048;SDS011;29717;47.028;15.470;2023-05-13T05:19:27;7.55;;;6.85;;
44048;SDS011;29717;47.028;15.470;2023-05-13T05:21:55;8.25;;;7.35;;
44048;SDS011;29717;47.028;15.470;2023-05-13T05:24:22;8.38;;;7.68;;
44048;SDS011;29717;47.028;15.470;2023-05-13T05:26:49;9.05;;;8.25;;
44048;SDS011;29717;47.028;15.470;2023-05-13T05:29:16;10.23;;;9.23;;
44048;SDS011;29717;47.028;15.470;2023-05-13T05:31:43;11.40;;;10.20;;
44048;SDS011;29717;47.028;15.470;2023-05-13T05:34:09;12.18;;;10.75;;
44048;SDS011;29717;47.028;15.470;2023-05-13T05:36:36;12.38;;;10.85;;
44048;SDS011;29717;47.028;15.470;2023-05-13T05:39:05;14.15;;;11.75;;
44048;SDS011;29717;47.028;15.470;2023-05-13T05:41:32;15.10;;;12.27;;
44048;SDS011;29717;47.028;15.470;2023-05-13T05:43:59;13.38;;;11.75;;
44048;SDS011;29717;47.028;15.470;2023-05-13T05:46:25;15.80;;;12.05;;
44048;SDS011;29717;47.028;15.470;2023-05-13T05:48:52;13.10;;;11.70;;
44048;SDS011;29717;47.028;15.470;2023-05-13T05:51:19;12.38;;;10.95;;
44048;SDS011;29717;47.028;15.470;2023-05-13T05:53:46;13.32;;;11.32;;
44048;SDS011;29717;47.028;15.470;2023-05-13T05:56:14;13.55;;;12.18;;
44048;SDS011;29717;47.028;15.470;2023-05-13T05:58:41;13.52;;;10.95;;
44048;SDS011;29717;47.028;15.470;2023-05-13T06:01:08;13.88;;;12.10;;
44048;SDS011;29717;47.028;15.470;2023-05-13T06:03:35;13.98;;;11.80;;
44048;SDS011;29717;47.028;15.470;2023-05-13T06:06:02;12.85;;;11.48;;
44048;SDS011;29717;47.028;15.470;2023-05-13T06:08:29;14.05;;;11.80;;
44048;SDS011;29717;47.028;15.470;2023-05-13T06:10:56;13.23;;;11.15;;
44048;SDS011;29717;47.028;15.470;2023-05-13T06:13:24;11.55;;;10.45;;
44048;SDS011;29717;47.028;15.470;2023-05-13T06:18:21;12.68;;;10.98;;
44048;SDS011;29717;47.028;15.470;2023-05-13T06:20:49;13.27;;;11.88;;
44048;SDS011;29717;47.028;15.470;2023-05-13T06:23:16;11.50;;;9.70;;
44048;SDS011;29717;47.028;15.470;2023-05-13T06:25:43;10.75;;;9.65;;
44048;SDS011;29717;47.028;15.470;2023-05-13T06:28:10;11.10;;;9.07;;
44048;SDS011;29717;47.028;15.470;2023-05-13T06:30:38;9.75;;;8.75;;
44048;SDS011;29717;47.028;15.470;2023-05-13T06:33:05;9.52;;;8.63;;
44048;SDS011;29717;47.028;15.470;2023-05-13T06:35:34;10.30;;;8.40;;
44048;SDS011;29717;47.028;15.470;2023-05-13T06:38:02;9.15;;;8.25;;
44048;SDS011;29717;47.028;15.470;2023-05-13T06:40:29;9.55;;;8.55;;
44048;SDS011;29717;47.028;15.470;2023-05-13T06:42:56;14.57;;;8.95;;
44048;SDS011;29717;47.028;15.470;2023-05-13T06:45:22;9.52;;;8.63;;
44048;SDS011;29717;47.028;15.470;2023-05-13T06:47:52;10.98;;;8.77;;
44048;SDS011;29717;47.028;15.470;2023-05-13T06:50:19;9.02;;;8.15;;
44048;SDS011;29717;47.028;15.470;2023-05-13T06:52:46;9.18;;;8.18;;
44048;SDS011;29717;47.028;15.470;2023-05-13T06:55:13;8.80;;;7.90;;
44048;SDS011;29717;47.028;15.470;2023-05-13T06:57:40;9.40;;;8.18;;
44048;SDS011;29717;47.028;15.470;2023-05-13T07:00:11;7.72;;;6.85;;
44048;SDS011;29717;47.028;15.470;2023-05-13T07:02:38;7.07;;;6.38;;
44048;SDS011;29717;47.028;15.470;2023-05-13T07:05:07;6.85;;;6.00;;
44048;SDS011;29717;47.028;15.470;2023-05-13T07:07:34;11.50;;;7.60;;
44048;SDS011;29717;47.028;15.470;2023-05-13T07:10:01;7.03;;;6.32;;
44048;SDS011;29717;47.028;15.470;2023-05-13T07:12:28;7.05;;;5.78;;
44048;SDS011;29717;47.028;15.470;2023-05-13T07:14:54;6.68;;;6.00;;
44048;SDS011;29717;47.028;15.470;2023-05-13T07:17:22;6.22;;;5.63;;
44048;SDS011;29717;47.028;15.470;2023-05-13T07:19:51;6.75;;;5.40;;
44048;SDS011;29717;47.028;15.470;2023-05-13T07:22:20;6.22;;;5.50;;
44048;SDS011;29717;47.028;15.470;2023-05-13T07:24:47;6.10;;;5.53;;
44048;SDS011;29717;47.028;15.470;2023-05-13T07:27:13;5.78;;;5.28;;
44048;SDS011;29717;47.028;15.470;2023-05-13T07:29:41;6.13;;;5.43;;
44048;SDS011;29717;47.028;15.470;2023-05-13T07:32:08;6.30;;;4.78;;
44048;SDS011;29717;47.028;15.470;2023-05-13T07:34:35;11.18;;;9.82;;
44048;SDS011;29717;47.028;15.470;2023-05-13T07:37:02;6.90;;;6.30;;
44048;SDS011;29717;47.028;15.470;2023-05-13T07:39:30;5.75;;;5.25;;
44048;SDS011;29717;47.028;15.470;2023-05-13T07:41:57;5.60;;;4.50;;
44048;SDS011;29717;47.028;15.470;2023-05-13T07:44:24;4.82;;;4.43;;
44048;SDS011;29717;47.028;15.470;2023-05-13T07:46:52;5.22;;;4.72;;
44048;SDS011;29717;47.028;15.470;2023-05-13T07:49:18;5.75;;;4.80;;
44048;SDS011;29717;47.028;15.470;2023-05-13T07:51:45;5.07;;;4.57;;
44048;SDS011;29717;47.028;15.470;2023-05-13T07:54:12;5.25;;;4.75;;
44048;SDS011;29717;47.028;15.470;2023-05-13T07:56:41;4.63;;;4.22;;
44048;SDS011;29717;47.028;15.470;2023-05-13T07:59:10;4.65;;;4.18;;
44048;SDS011;29717;47.028;15.470;2023-05-13T08:01:37;4.82;;;4.38;;
44048;SDS011;29717;47.028;15.470;2023-05-13T08:04:04;5.20;;;4.72;;
44048;SDS011;29717;47.028;15.470;2023-05-13T08:06:31;4.07;;;3.78;;
44048;SDS011;29717;47.028;15.470;2023-05-13T08:08:58;3.67;;;3.40;;
44048;SDS011;29717;47.028;15.470;2023-05-13T08:11:26;3.78;;;3.47;;
44048;SDS011;29717;47.028;15.470;2023-05-13T08:13:55;3.78;;;3.38;;
44048;SDS011;29717;47.028;15.470;2023-05-13T08:16:22;3.50;;;3.20;;
44048;SDS011;29717;47.028;15.470;2023-05-13T08:18:49;3.85;;;3.45;;
44048;SDS011;29717;47.028;15.470;2023-05-13T08:21:15;4.13;;;3.17;;
44048;SDS011;29717;47.028;15.470;2023-05-13T08:23:42;3.15;;;2.85;;
44048;SDS011;29717;47.028;15.470;2023-05-13T08:26:09;3.08;;;2.88;;
44048;SDS011;29717;47.028;15.470;2023-05-13T08:28:36;2.95;;;2.67;;
44048;SDS011;29717;47.028;15.470;2023-05-13T08:31:05;3.05;;;2.80;;
44048;SDS011;29717;47.028;15.470;2023-05-13T08:33:31;2.78;;;2.58;;
44048;SDS011;29717;47.028;15.470;2023-05-13T08:35:59;2.83;;;2.63;;
44048;SDS011;29717;47.028;15.470;2023-05-13T08:38:25;3.00;;;2.70;;
44048;SDS011;29717;47.028;15.470;2023-05-13T08:40:52;2.50;;;2.30;;
44048;SDS011;29717;47.028;15.470;2023-05-13T08:43:19;2.85;;;2.50;;
44048;SDS011;29717;47.028;15.470;2023-05-13T08:45:49;2.20;;;2.10;;
44048;SDS011;29717;47.028;15.470;2023-05-13T08:48:19;2.25;;;2.05;;
44048;SDS011;29717;47.028;15.470;2023-05-13T08:50:47;2.80;;;2.50;;
44048;SDS011;29717;47.028;15.470;2023-05-13T08:53:14;2.53;;;2.15;;
44048;SDS011;29717;47.028;15.470;2023-05-13T08:55:42;2.88;;;2.58;;
44048;SDS011;29717;47.028;15.470;2023-05-13T08:58:09;2.60;;;2.40;;
44048;SDS011;29717;47.028;15.470;2023-05-13T09:00:36;2.58;;;2.38;;
44048;SDS011;29717;47.028;15.470;2023-05-13T09:03:03;2.75;;;2.55;;
44048;SDS011;29717;47.028;15.470;2023-05-13T09:05:33;4.30;;;3.65;;
44048;SDS011;29717;47.028;15.470;2023-05-13T09:08:00;3.10;;;2.80;;
44048;SDS011;29717;47.028;15.470;2023-05-13T09:10:31;3.47;;;3.17;;
44048;SDS011;29717;47.028;15.470;2023-05-13T09:12:58;4.03;;;3.63;;
44048;SDS011;29717;47.028;15.470;2023-05-13T09:15:26;8.20;;;7.40;;
44048;SDS011;29717;47.028;15.470;2023-05-13T09:17:54;8.52;;;6.97;;
44048;SDS011;29717;47.028;15.470;2023-05-13T09:20:21;8.43;;;4.22;;
44048;SDS011;29717;47.028;15.470;2023-05-13T09:22:51;4.07;;;3.70;;
44048;SDS011;29717;47.028;15.470;2023-05-13T09:25:19;5.80;;;4.00;;
44048;SDS011;29717;47.028;15.470;2023-05-13T09:27:50;4.13;;;3.72;;
44048;SDS011;29717;47.028;15.470;2023-05-13T09:30:18;6.13;;;4.28;;
44048;SDS011;29717;47.028;15.470;2023-05-13T09:32:45;4.20;;;3.78;;
44048;SDS011;29717;47.028;15.470;2023-05-13T09:35:29;3.90;;;3.58;;
44048;SDS011;29717;47.028;15.470;2023-05-13T09:37:58;4.35;;;3.95;;
44048;SDS011;29717;47.028;15.470;2023-05-13T09:40:25;3.83;;;3.40;;
44048;SDS011;29717;47.028;15.470;2023-05-13T09:42:55;3.53;;;3.22;;
44048;SDS011;29717;47.028;15.470;2023-05-13T09:45:22;3.58;;;3.28;;
44048;SDS011;29717;47.028;15.470;2023-05-13T09:47:49;3.63;;;3.33;;
44048;SDS011;29717;47.028;15.470;2023-05-13T09:50:17;3.33;;;2.72;;
44048;SDS011;29717;47.028;15.470;2023-05-13T09:52:44;3.97;;;3.20;;
44048;SDS011;29717;47.028;15.470;2023-05-13T09:55:12;2.83;;;2.63;;
44048;SDS011;29717;47.028;15.470;2023-05-13T09:57:39;4.68;;;4.05;;
44048;SDS011;29717;47.028;15.470;2023-05-13T10:00:07;4.82;;;4.40;;
44048;SDS011;29717;47.028;15.470;2023-05-13T10:02:34;3.20;;;2.83;;
44048;SDS011;29717;47.028;15.470;2023-05-13T10:05:01;2.88;;;2.67;;
44048;SDS011;29717;47.028;15.470;2023-05-13T10:07:28;2.65;;;2.45;;
44048;SDS011;29717;47.028;15.470;2023-05-13T10:09:57;2.33;;;2.20;;
44048;SDS011;29717;47.028;15.470;2023-05-13T10:12:27;2.22;;;2.10;;
44048;SDS011;29717;47.028;15.470;2023-05-13T10:14:56;2.95;;;2.35;;
44048;SDS011;29717;47.028;15.470;2023-05-13T10:17:25;2.63;;;2.00;;
44048;SDS011;29717;47.028;15.470;2023-05-13T10:19:53;2.63;;;2.15;;
44048;SDS011;29717;47.028;15.470;2023-05-13T10:22:23;4.90;;;2.10;;
44048;SDS011;29717;47.028;15.470;2023-05-13T10:24:53;2.40;;;2.20;;
44048;SDS011;29717;47.028;15.470;2023-05-13T10:27:21;2.53;;;2.33;;
44048;SDS011;29717;47.028;15.470;2023-05-13T10:29:51;2.90;;;2.70;;
44048;SDS011;29717;47.028;15.470;2023-05-13T10:32:19;4.93;;;3.33;;
44048;SDS011;29717;47.028;15.470;2023-05-13T10:34:47;3.58;;;3.28;;
44048;SDS011;29717;47.028;15.470;2023-05-13T10:37:24;4.07;;;3.75;;
44048;SDS011;29717;47.028;15.470;2023-05-13T10:42:38;4.65;;;4.25;;
44048;SDS011;29717;47.028;15.470;2023-05-13T10:45:08;5.03;;;4.53;;
44048;SDS011;29717;47.028;15.470;2023-05-13T10:47:35;5.20;;;4.72;;
44048;SDS011;29717;47.028;15.470;2023-05-13T10:50:06;5.07;;;4.57;;
44048;SDS011;29717;47.028;15.470;2023-05-13T10:52:48;5.35;;;4.70;;
44048;SDS011;29717;47.028;15.470;2023-05-13T10:55:15;5.88;;;5.22;;
44048;SDS011;29717;47.028;15.470;2023-05-13T11:00:28;6.00;;;5.50;;
44048;SDS011;29717;47.028;15.470;2023-05-13T11:02:55;6.70;;;6.10;;
44048;SDS011;29717;47.028;15.470;2023-05-13T11:05:22;7.07;;;6.38;;
44048;SDS011;29717;47.028;15.470;2023-05-13T11:07:55;7.45;;;6.75;;
44048;SDS011;29717;47.028;15.470;2023-05-13T11:10:23;7.72;;;6.90;;
44048;SDS011;29717;47.028;15.470;2023-05-13T11:15:43;7.95;;;7.13;;
44048;SDS011;29717;47.028;15.470;2023-05-13T11:18:10;8.63;;;7.72;;
44048;SDS011;29717;47.028;15.470;2023-05-13T11:20:37;8.65;;;7.55;;
44048;SDS011;29717;47.028;15.470;2023-05-13T11:23:04;11.13;;;8.50;;
44048;SDS011;29717;47.028;15.470;2023-05-13T11:25:33;10.63;;;8.18;;
44048;SDS011;29717;47.028;15.470;2023-05-13T11:28:00;10.63;;;9.52;;
44048;SDS011;29717;47.028;15.470;2023-05-13T11:30:28;12.73;;;9.90;;
44048;SDS011;29717;47.028;15.470;2023-05-13T11:32:57;11.68;;;9.00;;
44048;SDS011;29717;47.028;15.470;2023-05-13T11:35:26;14.35;;;10.60;;
44048;SDS011;29717;47.028;15.470;2023-05-13T11:37:53;12.43;;;10.35;;
44048;SDS011;29717;47.028;15.470;2023-05-13T11:40:20;11.70;;;10.02;;
44048;SDS011;29717;47.028;15.470;2023-05-13T11:42:47;11.45;;;10.23;;
44048;SDS011;29717;47.028;15.470;2023-05-13T11:45:14;16.17;;;10.65;;
44048;SDS011;29717;47.028;15.470;2023-05-13T11:47:42;13.88;;;10.82;;
44048;SDS011;29717;47.028;15.470;2023-05-13T11:50:18;12.95;;;10.82;;
44048;SDS011;29717;47.028;15.470;2023-05-13T11:52:45;13.13;;;10.90;;
44048;SDS011;29717;47.028;15.470;2023-05-13T11:55:23;14.73;;;11.02;;
44048;SDS011;29717;47.028;15.470;2023-05-13T11:57:50;17.38;;;11.68;;
44048;SDS011;29717;47.028;15.470;2023-05-13T12:00:22;13.90;;;10.63;;
44048;SDS011;29717;47.028;15.470;2023-05-13T12:02:50;13.23;;;10.57;;
44048;SDS011;29717;47.028;15.470;2023-05-13T12:05:18;13.85;;;10.48;;
44048;SDS011;29717;47.028;15.470;2023-05-13T12:07:45;13.50;;;11.05;;
44048;SDS011;29717;47.028;15.470;2023-05-13T12:10:12;14.48;;;10.98;;
44048;SDS011;29717;47.028;15.470;2023-05-13T12:12:39;11.70;;;10.05;;
44048;SDS011;29717;47.028;15.470;2023-05-13T12:15:09;11.65;;;10.07;;
44048;SDS011;29717;47.028;15.470;2023-05-13T12:17:37;11.88;;;8.93;;
44048;SDS011;29717;47.028;15.470;2023-05-13T12:20:08;13.77;;;10.57;;
44048;SDS011;29717;47.028;15.470;2023-05-13T12:22:47;11.45;;;10.25;;
44048;SDS011;29717;47.028;15.470;2023-05-13T12:28:04;11.23;;;9.90;;
44048;SDS011;29717;47.028;15.470;2023-05-13T12:30:32;13.82;;;10.43;;
44048;SDS011;29717;47.028;15.470;2023-05-13T12:32:59;13.65;;;10.52;;
44048;SDS011;29717;47.028;15.470;2023-05-13T12:35:26;11.48;;;10.27;;
44048;SDS011;29717;47.028;15.470;2023-05-13T12:37:59;12.80;;;9.90;;
44048;SDS011;29717;47.028;15.470;2023-05-13T12:40:25;13.75;;;10.10;;
44048;SDS011;29717;47.028;15.470;2023-05-13T12:42:55;10.68;;;9.55;;
44048;SDS011;29717;47.028;15.470;2023-05-13T12:45:23;10.30;;;8.98;;
44048;SDS011;29717;47.028;15.470;2023-05-13T12:47:51;10.55;;;8.55;;
44048;SDS011;29717;47.028;15.470;2023-05-13T12:50:18;12.32;;;8.77;;
44048;SDS011;29717;47.028;15.470;2023-05-13T12:52:45;9.73;;;7.88;;
44048;SDS011;29717;47.028;15.470;2023-05-13T12:55:13;8.88;;;7.45;;
44048;SDS011;29717;47.028;15.470;2023-05-13T12:57:40;9.55;;;7.80;;
44048;SDS011;29717;47.028;15.470;2023-05-13T13:00:08;8.80;;;7.90;;
44048;SDS011;29717;47.028;15.470;2023-05-13T13:02:35;8.65;;;7.70;;
44048;SDS011;29717;47.028;15.470;2023-05-13T13:05:02;8.25;;;7.45;;
44048;SDS011;29717;47.028;15.470;2023-05-13T13:07:28;9.82;;;7.63;;
44048;SDS011;29717;47.028;15.470;2023-05-13T13:09:55;9.30;;;8.30;;
44048;SDS011;29717;47.028;15.470;2023-05-13T13:12:23;10.45;;;7.32;;
44048;SDS011;29717;47.028;15.470;2023-05-13T13:14:50;8.38;;;7.57;;
44048;SDS011;29717;47.028;15.470;2023-05-13T13:17:17;10.35;;;7.43;;
44048;SDS011;29717;47.028;15.470;2023-05-13T13:19:46;7.68;;;6.97;;
44048;SDS011;29717;47.028;15.470;2023-05-13T13:22:13;7.65;;;6.85;;
44048;SDS011;29717;47.028;15.470;2023-05-13T13:24:40;7.90;;;7.10;;
44048;SDS011;29717;47.028;15.470;2023-05-13T13:27:07;10.55;;;7.38;;
44048;SDS011;29717;47.028;15.470;2023-05-13T13:29:35;7.47;;;6.78;;
44048;SDS011;29717;47.028;15.470;2023-05-13T13:32:02;7.70;;;7.00;;
44048;SDS011;29717;47.028;15.470;2023-05-13T13:34:29;8.48;;;7.47;;
44048;SDS011;29717;47.028;15.470;2023-05-13T13:36:56;7.47;;;6.68;;
44048;SDS011;29717;47.028;15.470;2023-05-13T13:39:24;7.53;;;6.82;;
44048;SDS011;29717;47.028;15.470;2023-05-13T13:41:52;7.10;;;6.30;;
44048;SDS011;29717;47.028;15.470;2023-05-13T13:44:19;8.63;;;6.97;;
44048;SDS011;29717;47.028;15.470;2023-05-13T13:46:47;7.50;;;6.65;;
44048;SDS011;29717;47.028;15.470;2023-05-13T13:49:14;7.88;;;6.68;;
44048;SDS011;29717;47.028;15.470;2023-05-13T13:51:42;8.25;;;7.40;;
44048;SDS011;29717;47.028;15.470;2023-05-13T13:54:09;8.70;;;7.80;;
44048;SDS011;29717;47.028;15.470;2023-05-13T13:56:36;8.00;;;7.20;;
44048;SDS011;29717;47.028;15.470;2023-05-13T13:59:04;7.15;;;6.45;;
44048;SDS011;29717;47.028;15.470;2023-05-13T14:01:31;10.77;;;9.65;;
44048;SDS011;29717;47.028;15.470;2023-05-13T14:04:10;8.77;;;7.97;;
44048;SDS011;29717;47.028;15.470;2023-05-13T14:06:37;7.30;;;6.60;;
44048;SDS011;29717;47.028;15.470;2023-05-13T14:09:04;7.95;;;6.65;;
44048;SDS011;29717;47.028;15.470;2023-05-13T14:11:31;9.68;;;6.75;;
44048;SDS011;29717;47.028;15.470;2023-05-13T14:13:58;7.85;;;6.70;;
44048;SDS011;29717;47.028;15.470;2023-05-13T14:16:25;7.60;;;6.90;;
44048;SDS011;29717;47.028;15.470;2023-05-13T14:18:52;8.85;;;7.22;;
44048;SDS011;29717;47.028;15.470;2023-05-13T14:21:20;8.00;;;7.25;;
44048;SDS011;29717;47.028;15.470;2023-05-13T14:23:47;7.50;;;6.75;;
44048;SDS011;29717;47.028;15.470;2023-05-13T14:26:14;7.32;;;6.55;;
44048;SDS011;29717;47.028;15.470;2023-05-13T14:28:41;8.60;;;6.72;;
44048;SDS011;29717;47.028;15.470;2023-05-13T14:31:08;7.72;;;7.03;;
44048;SDS011;29717;47.028;15.470;2023-05-13T14:33:35;7.25;;;6.65;;
44048;SDS011;29717;47.028;15.470;2023-05-13T14:36:02;8.13;;;7.32;;
44048;SDS011;29717;47.028;15.470;2023-05-13T14:38:30;7.35;;;6.65;;
44048;SDS011;29717;47.028;15.470;2023-05-13T14:40:57;31.63;;;26.63;;
44048;SDS011;29717;47.028;15.470;2023-05-13T14:43:24;13.45;;;11.98;;
44048;SDS011;29717;47.028;15.470;2023-05-13T14:45:50;14.18;;;11.07;;